Time,TemperatureF,DewpointF,PressureIn,WindDirection,WindDirectionDegrees,WindSpeedMPH,WindSpeedGustMPH,Humidity,HourlyPrecipIn,Conditions,Clouds,dailyrainin,SoftwareType,DateUTC
2013-09-20 00:02:00,58.0,-99.9,-100.00,SSE,150,1.0,4.0,-999,-99.99,,,-99.99,,2013-09-20 07:02:00,
2013-09-20 00:30:00,54.0,-99.9,-100.00,SSE,163,2.0,5.0,-999,-99.99,,,-99.99,,2013-09-20 07:30:00,
2013-09-20 01:22:00,54.0,-99.9,-100.00,SSE,163,2.0,5.0,-999,-99.99,,,-99.99,,2013-09-20 08:22:00,
2013-09-20 02:30:00,51.0,-99.9,-100.00,ESE,108,5.0,8.0,-999,-99.99,,,-99.99,,2013-09-20 09:30:00,
2013-09-20 02:44:00,51.0,-99.9,-100.00,SE,129,3.0,10.0,-999,-99.99,,,-99.99,,2013-09-20 09:44:00,
2013-09-20 02:54:00,51.0,-99.9,-100.00,SE,129,3.0,10.0,-999,-99.99,,,-99.99,,2013-09-20 09:54:00,
2013-09-20 03:23:00,51.0,-99.9,-100.00,ESE,108,5.0,8.0,-999,-99.99,,,-99.99,,2013-09-20 10:23:00,
2013-09-20 04:12:00,50.0,-99.9,-100.00,ESE,112,5.0,5.0,-999,-99.99,,,-99.99,,2013-09-20 11:12:00,
2013-09-20 07:00:00,49.0,-99.9,-100.00,NW,310,2.0,4.0,-999,-99.99,,,-99.99,,2013-09-20 14:00:00,
2013-09-20 07:52:00,49.0,-99.9,-100.00,NW,310,2.0,4.0,-999,-99.99,,,-99.99,,2013-09-20 14:52:00,
2013-09-20 08:22:00,55.0,-99.9,-100.00,NNW,339,2.0,3.0,-999,-99.99,,,-99.99,,2013-09-20 15:22:00,
2013-09-20 08:33:00,55.0,-99.9,-100.00,NNW,339,2.0,3.0,-999,-99.99,,,-99.99,,2013-09-20 15:33:00,
2013-09-20 10:00:00,82.0,-99.9,-100.00,North,356,8.0,11.0,-999,-99.99,,,-99.99,,2013-09-20 17:00:00,
2013-09-20 10:53:00,82.0,-99.9,-100.00,North,356,8.0,11.0,-999,-99.99,,,-99.99,,2013-09-20 17:53:00,
2013-09-20 11:22:00,83.0,-99.9,-100.00,North,351,10.0,13.0,-999,-99.99,,,-99.99,,2013-09-20 18:22:00,
2013-09-20 11:42:00,83.0,-99.9,-100.00,NNW,345,5.0,16.0,-999,-99.99,,,-99.99,,2013-09-20 18:42:00,
2013-09-20 11:52:00,82.0,-99.9,-100.00,NNW,340,16.0,16.0,-999,-99.99,,,-99.99,,2013-09-20 18:52:00,
2013-09-20 12:10:00,87.0,-99.9,-100.00,North,8,16.0,16.0,-999,-99.99,,,-99.99,,2013-09-20 19:10:00,
2013-09-20 12:12:00,84.0,-99.9,-100.00,NNW,340,10.0,16.0,-999,-99.99,,,-99.99,,2013-09-20 19:12:00,
2013-09-20 12:22:00,85.0,-99.9,-100.00,NE,40,12.0,12.0,-999,-99.99,,,-99.99,,2013-09-20 19:22:00,
2013-09-20 12:42:00,86.0,-99.9,-100.00,NNE,14,11.0,11.0,-999,-99.99,,,-99.99,,2013-09-20 19:42:00,
2013-09-20 12:53:00,87.0,-99.9,-100.00,North,8,16.0,16.0,-999,-99.99,,,-99.99,,2013-09-20 19:53:00,
2013-09-20 13:03:00,87.0,-99.9,-100.00,North,8,16.0,16.0,-999,-99.99,,,-99.99,,2013-09-20 20:03:00,
2013-09-20 13:42:00,87.0,-99.9,-100.00,NE,54,14.0,20.0,-999,-99.99,,,-99.99,,2013-09-20 20:42:00,
2013-09-20 13:52:00,87.0,-99.9,-100.00,NE,54,14.0,20.0,-999,-99.99,,,-99.99,,2013-09-20 20:52:00,
2013-09-20 15:14:00,87.0,-99.9,-100.00,SE,135,13.0,20.0,-999,-99.99,,,-99.99,,2013-09-20 22:14:00,
2013-09-20 17:22:00,82.0,-99.9,-100.00,SSE,152,15.0,20.0,-999,-99.99,,,-99.99,,2013-09-21 00:22:00,
2013-09-20 17:42:00,82.0,-99.9,-100.00,SSE,165,16.0,20.0,-999,-99.99,,,-99.99,,2013-09-21 00:42:00,
2013-09-20 17:52:00,82.0,-99.9,-100.00,SSE,165,16.0,20.0,-999,-99.99,,,-99.99,,2013-09-21 00:52:00,
2013-09-20 18:10:00,75.0,-99.9,-100.00,SE,129,14.0,17.0,-999,-99.99,,,-99.99,,2013-09-21 01:10:00,
2013-09-20 18:40:00,73.0,-99.9,-100.00,SE,134,16.0,21.0,-999,-99.99,,,-99.99,,2013-09-21 01:40:00,
2013-09-20 18:42:00,76.0,-99.9,-100.00,ESE,120,14.0,20.0,-999,-99.99,,,-99.99,,2013-09-21 01:42:00,
2013-09-20 18:52:00,75.0,-99.9,-100.00,SE,129,14.0,17.0,-999,-99.99,,,-99.99,,2013-09-21 01:52:00,
2013-09-20 19:03:00,75.0,-99.9,-100.00,SE,129,14.0,17.0,-999,-99.99,,,-99.99,,2013-09-21 02:03:00,
2013-09-20 21:44:00,67.0,-99.9,-100.00,South,171,6.0,10.0,-999,-99.99,,,-99.99,,2013-09-21 04:44:00,
2013-09-20 22:44:00,65.0,-99.9,-100.00,SE,135,16.0,19.0,-999,-99.99,,,-99.99,,2013-09-21 05:44:00,